Time;durP1;ratioP1;P1;durP2;ratioP2;P2;SDS_P1;SDS_P2;PMS_P1;PMS_P2;Temp;Humidity;BMP_temperature;BMP_pressure;BME280_temperature;BME280_humidity;BME280_pressure;Samples;Min_cycle;Max_cycle;Signal;HPM_P1;HPM_P2
2023/04/02 00:00:21;;;;;;;0.00;0.00;;;;;;;8.46;100.00;100642.28;6240376;22;20005;-77
2023/04/02 00:02:50;;;;;;;0.00;0.00;;;;;;;8.42;100.00;100627.47;6243897;22;20007;-77
2023/04/02 00:05:49;;;;;;;0.00;0.00;;;;;;;8.55;100.00;100648.97;6239367;22;20004;-77
2023/04/02 00:08:40;;;;;;;0.00;0.00;;;;;;;8.54;100.00;100646.50;6227038;22;20079;-76
2023/04/02 00:11:11;;;;;;;0.00;0.00;;;;;;;8.49;100.00;100649.16;6212379;23;20070;-77
2023/04/02 00:17:31;;;;;;;0.00;0.00;;;;;;;8.30;100.00;100634.91;6010884;23;20414;-76
2023/04/02 00:20:04;;;;;;;0.00;0.00;;;;;;;8.18;100.00;100627.59;6213900;23;20015;-74
2023/04/02 00:22:52;;;;;;;0.00;0.00;;;;;;;8.34;100.00;100641.50;6237089;23;20062;-75
2023/04/02 00:25:18;;;;;;;0.00;0.00;;;;;;;8.40;100.00;100654.16;6214498;23;20046;-75
2023/04/02 00:31:33;;;;;;;0.00;0.00;;;;;;;8.30;100.00;100646.59;6005107;23;20004;-76
2023/04/02 00:34:21;;;;;;;0.00;0.00;;;;;;;8.30;100.00;100651.25;6049297;23;20006;-77
2023/04/02 00:36:48;;;;;;;0.00;0.00;;;;;;;8.41;100.00;100668.59;6089479;23;20042;-76
2023/04/02 00:39:19;;;;;;;0.10;0.10;;;;;;;8.43;100.00;100663.72;6178375;23;20003;-76
2023/04/02 00:41:45;;;;;;;0.00;0.00;;;;;;;8.37;100.00;100654.63;6213217;23;20008;-75
2023/04/02 00:44:14;;;;;;;0.00;0.00;;;;;;;8.48;100.00;100681.00;6181913;23;20651;-75
2023/04/02 00:46:45;;;;;;;0.00;0.00;;;;;;;8.40;100.00;100678.66;6215608;23;20023;-76
2023/04/02 00:49:17;;;;;;;0.00;0.00;;;;;;;8.42;100.00;100695.59;6212165;23;20023;-77
2023/04/02 00:51:52;;;;;;;0.10;0.10;;;;;;;8.41;100.00;100693.97;6213929;23;20031;-78
2023/04/02 00:54:22;;;;;;;0.00;0.00;;;;;;;8.36;100.00;100693.84;6212049;23;20008;-77
2023/04/02 00:56:51;;;;;;;0.00;0.00;;;;;;;8.48;100.00;100702.00;6207463;23;20083;-76
2023/04/02 00:59:34;;;;;;;0.00;0.00;;;;;;;8.44;100.00;100704.41;6215229;23;20062;-76
2023/04/02 01:02:25;;;;;;;0.00;0.00;;;;;;;8.42;100.00;100709.22;6233557;23;20083;-77
2023/04/02 01:04:53;;;;;;;0.00;0.00;;;;;;;8.39;100.00;100709.72;6213742;23;20008;-78
2023/04/02 01:07:25;;;;;;;0.10;0.10;;;;;;;8.31;100.00;100704.63;6211066;22;20350;-77
2023/04/02 01:10:09;;;;;;;0.00;0.00;;;;;;;8.20;100.00;100696.28;6261542;22;20429;-78
2023/04/02 01:12:34;;;;;;;0.00;0.00;;;;;;;8.26;100.00;100710.00;6236546;23;20000;-78
2023/04/02 01:15:09;;;;;;;0.00;0.00;;;;;;;8.30;100.00;100727.53;6239981;22;20003;-77
2023/04/02 01:17:47;;;;;;;0.00;0.00;;;;;;;8.27;100.00;100728.84;6239106;23;20012;-77
2023/04/02 01:20:22;;;;;;;0.00;0.00;;;;;;;8.28;100.00;100729.66;6236845;23;20004;-77
2023/04/02 01:23:24;;;;;;;0.00;0.00;;;;;;;8.30;100.00;100738.44;6240232;23;20008;-78
2023/04/02 01:25:59;;;;;;;0.00;0.00;;;;;;;8.28;100.00;100729.66;6236122;23;20041;-75
2023/04/02 01:28:32;;;;;;;0.00;0.00;;;;;;;8.19;100.00;100716.44;6240762;23;20008;-77
2023/04/02 01:31:01;;;;;;;0.00;0.00;;;;;;;8.32;100.00;100731.69;6237313;22;20008;-77
2023/04/02 01:33:34;;;;;;;0.00;0.00;;;;;;;8.37;100.00;100730.94;6242145;23;20087;-75
2023/04/02 01:36:05;;;;;;;0.00;0.00;;;;;;;8.39;100.00;100742.41;6234498;23;20004;-75
2023/04/02 01:38:52;;;;;;;0.00;0.00;;;;;;;8.38;100.00;100729.84;6240016;23;20086;-76
2023/04/02 01:41:38;;;;;;;0.00;0.00;;;;;;;8.42;100.00;100741.91;6235893;23;20083;-76
2023/04/02 01:44:08;;;;;;;0.00;0.00;;;;;;;8.43;100.00;100738.13;6238761;22;20011;-76
2023/04/02 01:46:37;;;;;;;0.00;0.00;;;;;;;8.35;100.00;100735.78;6241795;23;20008;-75
2023/04/02 01:49:20;;;;;;;0.00;0.00;;;;;;;8.31;100.00;100734.63;6214212;23;20007;-76
2023/04/02 01:51:51;;;;;;;0.00;0.00;;;;;;;8.31;100.00;100742.78;6239451;22;20484;-76
2023/04/02 01:54:18;;;;;;;0.00;0.00;;;;;;;8.28;100.00;100746.00;6239023;23;20091;-77
2023/04/02 01:56:45;;;;;;;0.00;0.00;;;;;;;8.32;100.00;100752.63;6215638;23;20439;-76
2023/04/02 01:59:13;;;;;;;0.00;0.00;;;;;;;8.28;100.00;100746.00;6238782;22;20011;-76
2023/04/02 02:01:44;;;;;;;0.00;0.00;;;;;;;8.30;100.00;100754.78;6213741;23;20331;-76
2023/04/02 02:04:15;;;;;;;0.00;0.00;;;;;;;8.27;100.00;100752.53;6239614;23;20035;-75
2023/04/02 02:06:42;;;;;;;0.00;0.00;;;;;;;8.27;100.00;100761.53;6237191;23;20011;-75
2023/04/02 02:09:14;;;;;;;0.00;0.00;;;;;;;8.20;100.00;100749.94;6213390;23;20051;-76
2023/04/02 02:11:40;;;;;;;0.00;0.00;;;;;;;8.23;100.00;100759.53;6232637;23;20003;-77
2023/04/02 02:14:17;;;;;;;0.10;0.10;;;;;;;8.21;100.00;100784.31;6215389;23;20059;-76
2023/04/02 02:16:45;;;;;;;0.00;0.00;;;;;;;8.13;100.00;100771.91;6234252;23;20449;-76
2023/04/02 02:19:16;;;;;;;0.00;0.00;;;;;;;8.19;100.00;100791.88;6215376;23;20004;-76
2023/04/02 02:21:45;;;;;;;0.00;0.00;;;;;;;8.18;100.00;100784.78;6232934;23;20703;-76
2023/04/02 02:24:27;;;;;;;0.00;0.00;;;;;;;8.28;100.00;100793.16;6237810;23;20004;-76
2023/04/02 02:27:17;;;;;;;0.00;0.00;;;;;;;8.24;100.00;100788.44;6235939;23;21011;-76
2023/04/02 02:29:45;;;;;;;0.00;0.00;;;;;;;8.28;100.00;100781.44;6240274;23;20082;-75
2023/04/02 02:32:14;;;;;;;0.00;0.00;;;;;;;8.29;100.00;100791.25;6236448;22;19997;-76
2023/04/02 02:34:48;;;;;;;0.00;0.00;;;;;;;8.23;100.00;100792.25;6239721;23;20070;-76
2023/04/02 02:37:26;;;;;;;0.00;0.00;;;;;;;8.11;100.00;100795.81;6234501;23;20004;-76
2023/04/02 02:39:55;;;;;;;0.00;0.00;;;;;;;8.07;100.00;100793.81;6237286;23;20008;-76
2023/04/02 02:42:32;;;;;;;0.00;0.00;;;;;;;8.02;100.00;100797.25;6232602;23;20008;-76
2023/04/02 02:45:01;;;;;;;0.00;0.00;;;;;;;7.99;100.00;100805.91;6239338;23;20042;-76
2023/04/02 02:47:29;;;;;;;0.00;0.00;;;;;;;7.91;100.00;100815.25;6234309;23;20004;-75
2023/04/02 02:50:02;;;;;;;0.00;0.00;;;;;;;7.89;100.00;100816.59;6240972;22;20415;-76
2023/04/02 02:52:31;;;;;;;0.00;0.00;;;;;;;7.90;100.00;100823.66;6236096;23;20001;-76
2023/04/02 02:55:10;;;;;;;0.00;0.00;;;;;;;7.84;100.00;100828.16;6239682;23;20457;-76
2023/04/02 02:57:41;;;;;;;0.00;0.00;;;;;;;7.78;100.00;100827.25;6234117;23;20015;-76
2023/04/02 03:00:14;;;;;;;0.00;0.00;;;;;;;7.62;100.00;100815.19;6240471;22;20004;-76
2023/04/02 03:02:42;;;;;;;0.00;0.00;;;;;;;7.66;100.00;100826.41;6236469;23;20008;-76
2023/04/02 03:05:08;;;;;;;0.00;0.00;;;;;;;7.68;100.00;100829.72;6240133;23;20004;-75
2023/04/02 03:07:36;;;;;;;0.00;0.00;;;;;;;7.66;100.00;100832.66;6185445;23;20031;-75
2023/04/02 03:10:16;;;;;;;0.00;0.00;;;;;;;7.67;100.00;100838.97;6237140;23;20004;-75
2023/04/02 03:13:00;;;;;;;0.00;0.00;;;;;;;7.64;100.00;100839.44;6234498;23;20071;-76
2023/04/02 03:16:04;;;;;;;0.00;0.00;;;;;;;7.50;100.00;100828.78;6239270;23;20051;-76
2023/04/02 03:18:32;;;;;;;0.00;0.00;;;;;;;7.50;100.00;100845.13;6220988;22;20008;-76
2023/04/02 03:21:17;;;;;;;0.00;0.00;;;;;;;7.48;100.00;100847.22;6239622;23;20018;-75
2023/04/02 03:23:48;;;;;;;0.00;0.00;;;;;;;7.46;100.00;100856.69;6241406;22;20007;-75
2023/04/02 03:26:23;;;;;;;0.00;0.00;;;;;;;7.41;100.00;100857.38;6233130;23;20014;-75
2023/04/02 03:28:54;;;;;;;0.00;0.00;;;;;;;7.37;100.00;100858.91;6240900;22;20000;-76
2023/04/02 03:31:31;;;;;;;0.00;0.00;;;;;;;7.36;100.00;100860.00;6258222;22;20007;-76
2023/04/02 03:34:24;;;;;;;0.00;0.00;;;;;;;7.42;100.00;100869.13;6240360;23;20000;-76
2023/04/02 03:37:14;;;;;;;0.00;0.00;;;;;;;7.39;100.00;100859.53;6242637;22;20022;-77
2023/04/02 03:39:46;;;;;;;0.00;0.00;;;;;;;7.35;100.00;100866.50;6239447;23;20004;-76
2023/04/02 03:42:20;;;;;;;0.00;0.00;;;;;;;7.29;100.00;100870.16;6239828;23;20004;-76
2023/04/02 03:44:49;;;;;;;0.10;0.10;;;;;;;7.31;100.00;100881.63;6236425;23;20008;-76
2023/04/02 03:47:23;;;;;;;0.10;0.10;;;;;;;7.35;100.00;100904.59;6238554;23;20553;-76
2023/04/02 03:50:01;;;;;;;0.00;0.00;;;;;;;7.31;100.00;100900.66;6237404;23;20008;-78
2023/04/02 03:52:29;;;;;;;0.00;0.00;;;;;;;7.31;100.00;100903.38;6242257;22;20071;-76
2023/04/02 03:54:57;;;;;;;0.00;0.00;;;;;;;7.38;100.00;100912.28;6240525;22;20034;-77
2023/04/02 03:57:29;;;;;;;0.00;0.00;;;;;;;7.44;100.00;100922.22;6232622;23;19996;-76
2023/04/02 04:00:06;;;;;;;0.10;0.10;;;;;;;7.41;100.00;100919.97;6239871;23;20023;-75
2023/04/02 04:03:04;;;;;;;0.00;0.00;;;;;;;7.44;100.00;100927.66;6235772;23;20031;-77
2023/04/02 04:05:38;;;;;;;0.00;0.00;;;;;;;7.41;100.00;100924.59;6236380;22;20008;-76
2023/04/02 04:08:25;;;;;;;0.10;0.10;;;;;;;7.35;100.00;100918.19;6241149;22;20019;-77
2023/04/02 04:10:54;;;;;;;0.00;0.00;;;;;;;7.33;100.00;100915.69;6266289;22;20276;-77
2023/04/02 04:13:48;;;;;;;0.00;0.00;;;;;;;7.37;100.00;100918.78;6245350;22;20002;-76
2023/04/02 04:16:21;;;;;;;0.00;0.00;;;;;;;7.45;100.00;100937.50;6264145;22;20035;-77
2023/04/02 04:19:05;;;;;;;0.00;0.00;;;;;;;7.46;100.00;100939.16;6244346;22;20087;-76
2023/04/02 04:21:37;;;;;;;0.00;0.00;;;;;;;7.51;100.00;100944.72;6240470;22;20054;-76
2023/04/02 04:24:05;;;;;;;0.00;0.00;;;;;;;7.56;100.00;100948.66;6245367;22;20102;-75
2023/04/02 04:26:52;;;;;;;0.10;0.10;;;;;;;7.59;100.00;100950.91;6260535;22;20168;-76
2023/04/02 04:29:47;;;;;;;0.00;0.00;;;;;;;7.62;100.00;100956.72;6244958;22;20007;-76
2023/04/02 04:32:25;;;;;;;0.00;0.00;;;;;;;7.62;100.00;100953.16;6242393;22;20015;-76
2023/04/02 04:34:55;;;;;;;0.10;0.10;;;;;;;7.57;100.00;100958.47;6240862;22;20011;-77
2023/04/02 04:37:32;;;;;;;0.00;0.00;;;;;;;7.54;100.00;100954.31;6240737;22;20679;-75
2023/04/02 04:40:35;;;;;;;0.10;0.10;;;;;;;7.55;100.00;100961.44;6264197;22;20484;-77
2023/04/02 04:43:11;;;;;;;0.00;0.00;;;;;;;7.58;100.00;100965.56;6243862;22;20035;-76
2023/04/02 04:46:02;;;;;;;0.00;0.00;;;;;;;7.55;100.00;100971.47;6267752;22;20015;-74
2023/04/02 04:49:08;;;;;;;0.00;0.00;;;;;;;7.62;100.00;100980.38;6265307;22;20003;-76
2023/04/02 04:51:58;;;;;;;0.00;0.00;;;;;;;7.64;100.00;100979.09;6242549;22;20000;-76
2023/04/02 04:54:26;;;;;;;0.00;0.00;;;;;;;7.59;100.00;100984.38;6241008;22;20493;-75
2023/04/02 04:56:58;;;;;;;0.00;0.00;;;;;;;7.62;100.00;100986.66;6242767;22;20337;-76
2023/04/02 04:59:38;;;;;;;0.00;0.00;;;;;;;7.59;100.00;100983.56;6237142;22;20026;-75
2023/04/02 05:02:08;;;;;;;0.00;0.00;;;;;;;7.62;100.00;100988.53;6244779;22;20066;-75
2023/04/02 05:04:36;;;;;;;0.00;0.00;;;;;;;7.61;100.00;100987.72;6239536;22;20061;-75
2023/04/02 05:07:09;;;;;;;0.00;0.00;;;;;;;7.63;100.00;101003.81;6244229;22;20000;-76
2023/04/02 05:09:42;;;;;;;0.00;0.00;;;;;;;7.46;100.00;100985.44;6239051;22;20104;-76
2023/04/02 05:12:17;;;;;;;0.00;0.00;;;;;;;7.62;100.00;101015.75;6245028;22;20075;-76
2023/04/02 05:14:50;;;;;;;;;;;;;;;7.65;100.00;101015.28;6265954;22;20000;-76
2023/04/02 05:17:26;;;;;;;0.00;0.00;;;;;;;7.62;100.00;101015.75;6243993;22;20273;-76
2023/04/02 05:20:30;;;;;;;0.00;0.00;;;;;;;7.66;100.00;101027.84;6239440;22;20061;-76
2023/04/02 05:23:02;;;;;;;0.00;0.00;;;;;;;7.68;100.00;101031.16;6239662;22;20004;-76
2023/04/02 05:25:30;;;;;;;0.00;0.00;;;;;;;7.71;100.00;101029.88;6272195;22;20304;-76
2023/04/02 05:28:20;;;;;;;0.00;0.00;;;;;;;7.63;100.00;101020.97;6241038;22;20008;-76
2023/04/02 05:30:51;;;;;;;0.00;0.00;;;;;;;7.68;100.00;101017.53;6242174;22;20011;-76
2023/04/02 05:33:20;;;;;;;0.00;0.00;;;;;;;7.70;100.00;101031.78;6238825;22;20082;-76
2023/04/02 05:35:50;;;;;;;0.10;0.10;;;;;;;7.67;100.00;101034.97;6245047;22;20008;-76
2023/04/02 05:38:26;;;;;;;0.00;0.00;;;;;;;7.66;100.00;101052.34;6263410;22;20004;-80
2023/04/02 05:41:35;;;;;;;0.00;0.00;;;;;;;7.75;100.00;101053.66;6243553;22;20026;-79
2023/04/02 05:44:19;;;;;;;0.00;0.00;;;;;;;7.81;100.00;101063.66;6267649;22;20094;-75
2023/04/02 05:46:59;;;;;;;0.00;0.00;;;;;;;7.67;100.00;101045.84;6236871;22;20003;-76
2023/04/02 05:49:31;;;;;;;0.00;0.00;;;;;;;7.79;100.00;101065.75;6242781;22;20004;-77
2023/04/02 05:52:01;;;;;;;0.00;0.00;;;;;;;7.51;100.00;101018.19;6238932;22;19992;-76
2023/04/02 05:54:33;;;;;;;0.00;0.00;;;;;;;7.89;100.00;101073.38;6243891;22;20084;-75
2023/04/02 05:57:14;;;;;;;0.00;0.00;;;;;;;7.81;100.00;101071.81;6267182;22;20415;-76
2023/04/02 05:59:46;;;;;;;0.00;0.00;;;;;;;7.85;100.00;101086.59;6241742;22;20007;-76
2023/04/02 06:02:11;;;;;;;0.00;0.00;;;;;;;7.82;100.00;101087.06;6270274;22;20373;-76
2023/04/02 06:04:55;;;;;;;0.00;0.00;;;;;;;7.84;100.00;101093.13;6241231;22;20061;-75
2023/04/02 06:08:46;;;;;;;0.00;0.00;;;;;;;7.85;100.00;101092.06;6274668;22;20058;-76
2023/04/02 06:11:12;;;;;;;0.00;0.00;;;;;;;7.78;100.00;101085.91;6145345;23;20029;-76
2023/04/02 06:13:40;;;;;;;;;;;;;;;7.89;100.00;101091.63;6153935;23;20433;-75
2023/04/02 06:16:06;;;;;;;0.00;0.00;;;;;;;7.85;100.00;101080.34;6229172;22;19910;-76
2023/04/02 06:18:40;;;;;;;0.00;0.00;;;;;;;7.86;100.00;101082.84;6249116;22;20012;-76
2023/04/02 06:21:16;;;;;;;;;;;;;;;;;;;;;
2023/04/02 06:23:52;;;;;;;0.00;0.00;;;;;;;7.93;100.00;101077.31;6275166;22;20462;-75
2023/04/02 06:26:41;;;;;;;0.10;0.10;;;;;;;7.98;100.00;101090.22;6242491;22;20014;-75
2023/04/02 06:29:39;;;;;;;0.10;0.10;;;;;;;8.14;100.00;101111.34;6249090;22;20065;-77
2023/04/02 06:32:27;;;;;;;0.00;0.00;;;;;;;8.08;100.00;101100.56;6275316;22;20006;-76
2023/04/02 06:34:58;;;;;;;0.00;0.00;;;;;;;8.16;100.00;101120.13;6203483;22;20041;-75
2023/04/02 06:37:40;;;;;;;0.00;0.00;;;;;;;8.19;100.00;101130.56;6250048;22;20087;-75
2023/04/02 06:40:26;;;;;;;0.00;0.00;;;;;;;8.12;100.00;101112.63;6247982;22;20045;-76
2023/04/02 06:49:56;;;;;;;;;;;;;;;;;;;;;
2023/04/02 06:53:14;;;;;;;0.00;0.00;;;;;;;8.34;100.00;101148.38;6273159;22;20078;-76
2023/04/02 06:56:15;;;;;;;0.00;0.00;;;;;;;8.34;100.00;101153.81;6247728;22;20011;-76
2023/04/02 06:59:13;;;;;;;;;;;;;;;;;;;;;
2023/04/02 07:04:42;;;;;;;;;;;;;;;;;;;;;
2023/04/02 07:07:20;;;;;;;0.00;0.00;;;;;;;8.41;100.00;101175.50;6277836;22;20087;-77
2023/04/02 07:09:58;;;;;;;;;;;;;;;;;;;;;
2023/04/02 07:12:27;;;;;;;0.00;0.00;;;;;;;8.20;100.00;101151.25;6252235;22;20055;-76
2023/04/02 07:15:02;;;;;;;;;;;;;;;;;;;;;
2023/04/02 07:17:39;;;;;;;0.00;0.00;;;;;;;8.21;100.00;101152.13;6275249;22;20079;-74
2023/04/02 07:20:45;;;;;;;0.00;0.00;;;;;;;8.27;100.00;101169.44;6270669;22;20008;-75
2023/04/02 07:23:10;;;;;;;0.00;0.00;;;;;;;8.21;100.00;101174.72;6241375;22;20011;-74
2023/04/02 07:25:36;;;;;;;0.00;0.00;;;;;;;8.25;100.00;101177.00;6221829;22;20012;-74
2023/04/02 07:28:11;;;;;;;0.00;0.00;;;;;;;8.33;100.00;101196.56;6269491;22;20034;-75
2023/04/02 07:30:36;;;;;;;0.00;0.00;;;;;;;8.23;100.00;101192.75;6224119;22;20007;-75
2023/04/02 07:33:04;;;;;;;0.00;0.00;;;;;;;8.37;100.00;101207.84;6270441;22;19995;-75
2023/04/02 07:35:30;;;;;;;0.00;0.00;;;;;;;8.35;100.00;101196.34;6247884;22;20026;-74
2023/04/02 07:37:58;;;;;;;0.00;0.00;;;;;;;8.57;100.00;101218.47;6271950;22;20023;-74
2023/04/02 07:40:26;;;;;;;0.00;0.00;;;;;;;8.66;100.00;101206.19;6269583;22;20007;-74
2023/04/02 07:42:51;;;;;;;0.00;0.00;;;;;;;8.70;100.00;101201.06;6274979;22;20050;-75
2023/04/02 07:45:17;;;;;;;0.00;0.00;;;;;;;8.86;100.00;101202.28;6241514;22;20008;-75
2023/04/02 07:47:42;;;;;;;0.00;0.00;;;;;;;9.04;100.00;101195.91;6248663;22;20004;-75
2023/04/02 07:50:09;;;;;;;0.00;0.00;;;;;;;9.34;100.00;101228.50;6216817;22;20011;-75
2023/04/02 07:52:44;;;;;;;0.00;0.00;;;;;;;9.35;100.00;101218.44;6248376;22;20049;-75
2023/04/02 07:55:17;;;;;;;0.00;0.00;;;;;;;9.50;100.00;101253.44;6244314;22;20110;-75
2023/04/02 07:57:58;;;;;;;0.00;0.00;;;;;;;9.30;100.00;101231.97;6269531;22;20012;-74
2023/04/02 08:00:32;;;;;;;0.00;0.00;;;;;;;9.38;100.00;101261.63;6222060;22;20034;-74
2023/04/02 08:02:59;;;;;;;0.00;0.00;;;;;;;9.16;100.00;101234.13;6215928;22;20007;-74
2023/04/02 08:05:27;;;;;;;0.00;0.00;;;;;;;9.24;100.00;101267.34;6272934;22;20427;-74
2023/04/02 08:07:54;;;;;;;0.00;0.00;;;;;;;9.33;100.00;101264.22;6215757;22;20020;-75
2023/04/02 08:10:20;;;;;;;0.00;0.00;;;;;;;9.23;100.00;101257.47;6242873;22;20088;-75
2023/04/02 08:12:50;;;;;;;0.00;0.00;;;;;;;9.23;100.00;101248.47;6244945;22;20003;-75
2023/04/02 08:15:18;;;;;;;0.05;0.05;;;;;;;9.29;100.00;101279.41;6245972;22;20003;-74
2023/04/02 08:17:45;;;;;;;0.00;0.00;;;;;;;9.10;100.00;101260.44;6270868;22;20061;-74
2023/04/02 08:20:17;;;;;;;0.00;0.00;;;;;;;9.16;100.00;101284.06;6245342;22;20019;-74
2023/04/02 08:22:44;;;;;;;0.00;0.00;;;;;;;9.04;100.00;101277.75;6245896;22;20012;-75
2023/04/02 08:25:29;;;;;;;0.10;0.10;;;;;;;8.89;100.00;101262.66;6271388;22;20018;-75
2023/04/02 08:28:00;;;;;;;0.00;0.00;;;;;;;8.95;100.00;101260.06;6244863;22;20417;-75
2023/04/02 08:30:25;;;;;;;0.00;0.00;;;;;;;9.31;100.00;101272.66;6221595;22;20755;-76
2023/04/02 08:32:58;;;;;;;0.00;0.00;;;;;;;9.67;100.00;101259.84;6222465;22;20004;-76
2023/04/02 08:35:24;;;;;;;0.00;0.00;;;;;;;10.04;100.00;101269.63;6224038;22;20030;-75
2023/04/02 08:38:13;;;;;;;0.00;0.00;;;;;;;10.26;100.00;101262.41;6221284;22;20019;-75
2023/04/02 08:40:49;;;;;;;0.00;0.00;;;;;;;10.36;100.00;101274.66;6274080;22;20026;-76
2023/04/02 08:44:00;;;;;;;0.00;0.00;;;;;;;10.38;100.00;101297.97;6243533;22;20003;-75
2023/04/02 08:47:12;;;;;;;;;;;;;;;;;;;;;
2023/04/02 08:50:05;;;;;;;0.00;0.00;;;;;;;10.03;100.00;101301.59;6262696;22;20082;-75
2023/04/02 08:52:35;;;;;;;0.00;0.00;;;;;;;9.90;100.00;101310.03;6247697;22;19999;-75
2023/04/02 08:55:03;;;;;;;0.00;0.00;;;;;;;9.83;100.00;101312.91;6272010;22;19999;-75
2023/04/02 08:58:00;;;;;;;0.00;0.00;;;;;;;9.77;100.00;101295.56;6271435;22;20381;-76
2023/04/02 09:00:40;;;;;;;0.00;0.00;;;;;;;9.92;100.00;101327.84;6276022;22;20011;-76
2023/04/02 09:03:34;;;;;;;0.00;0.00;;;;;;;9.93;100.00;101328.69;6245800;22;20015;-75
2023/04/02 09:06:09;;;;;;;0.00;0.00;;;;;;;9.73;100.00;101302.56;6191732;22;20866;-76
2023/04/02 09:08:45;;;;;;;0.00;0.00;;;;;;;9.66;100.00;101318.25;6222934;22;20019;-76
2023/04/02 09:11:20;;;;;;;0.00;0.00;;;;;;;9.69;100.00;101344.25;6219935;22;20008;-75
2023/04/02 09:14:00;;;;;;;0.00;0.00;;;;;;;9.90;100.00;101330.00;6273777;22;20026;-75
2023/04/02 09:16:52;;;;;;;0.00;0.00;;;;;;;10.24;100.00;101332.09;6247380;22;20134;-75
2023/04/02 09:19:53;;;;;;;0.00;0.00;;;;;;;10.37;100.00;101329.09;6269688;22;20011;-76
2023/04/02 09:22:24;;;;;;;0.00;0.00;;;;;;;10.43;100.00;101319.09;6231307;22;20060;-74
2023/04/02 09:25:07;;;;;;;0.00;0.00;;;;;;;10.56;100.00;101337.94;6276439;22;20383;-75
2023/04/02 09:27:35;;;;;;;0.00;0.00;;;;;;;10.95;100.00;101351.81;6244770;22;20003;-75
2023/04/02 09:30:31;;;;;;;0.00;0.00;;;;;;;11.46;97.83;101356.50;6248311;22;20015;-75
2023/04/02 09:33:18;;;;;;;0.00;0.00;;;;;;;11.81;95.20;101353.50;6244732;22;19992;-77
2023/04/02 09:35:54;;;;;;;0.00;0.00;;;;;;;12.61;93.29;101350.44;6249433;22;20410;-77
2023/04/02 09:38:29;;;;;;;0.00;0.00;;;;;;;13.78;88.72;101363.59;6246179;22;20003;-77
2023/04/02 09:41:06;;;;;;;0.00;0.00;;;;;;;14.40;84.07;101341.09;6251918;22;20004;-77
2023/04/02 09:43:34;;;;;;;0.00;0.00;;;;;;;14.83;81.32;101356.41;6249242;22;20398;-77
2023/04/02 09:46:04;;;;;;;0.00;0.00;;;;;;;15.00;80.27;101374.59;6247635;22;20008;-76
2023/04/02 09:48:45;;;;;;;0.00;0.00;;;;;;;15.04;80.00;101356.44;6248574;22;20090;-77
2023/04/02 09:51:17;;;;;;;0.00;0.00;;;;;;;14.96;79.62;101370.72;6274563;22;20008;-78
2023/04/02 09:54:05;;;;;;;0.00;0.00;;;;;;;14.20;80.72;101358.34;6247480;22;19995;-75
2023/04/02 09:56:59;;;;;;;0.00;0.00;;;;;;;13.50;81.11;101381.25;6246138;22;20008;-77
2023/04/02 09:59:27;;;;;;;0.00;0.00;;;;;;;12.71;83.57;101388.97;6243220;22;20011;-79
2023/04/02 10:01:53;;;;;;;0.10;0.10;;;;;;;12.50;87.01;101414.47;6248576;22;20011;-76
2023/04/02 10:04:43;;;;;;;0.00;0.00;;;;;;;12.25;89.24;101412.25;6242850;22;20825;-78
2023/04/02 10:07:31;;;;;;;0.00;0.00;;;;;;;11.87;91.90;101415.53;6249543;22;20010;-77
2023/04/02 10:10:18;;;;;;;0.00;0.00;;;;;;;11.62;94.28;101426.91;6247676;22;20003;-77
2023/04/02 10:12:55;;;;;;;0.00;0.00;;;;;;;11.29;95.29;101412.09;6244270;22;20087;-76
2023/04/02 10:15:37;;;;;;;0.00;0.00;;;;;;;11.35;96.09;101437.66;6273474;22;20442;-76
2023/04/02 10:18:36;;;;;;;0.00;0.00;;;;;;;11.25;96.66;101449.25;6245998;22;20371;-77
2023/04/02 10:21:06;;;;;;;0.00;0.00;;;;;;;11.25;97.70;101435.56;6226205;22;20004;-75
2023/04/02 10:23:33;;;;;;;0.00;0.00;;;;;;;11.29;97.46;101441.41;6248514;22;20437;-75
2023/04/02 10:26:19;;;;;;;0.00;0.00;;;;;;;11.26;96.96;101456.41;6273330;22;20003;-76
2023/04/02 10:28:45;;;;;;;0.00;0.00;;;;;;;11.13;98.25;101435.63;6247400;22;20015;-75
2023/04/02 10:31:24;;;;;;;0.00;0.00;;;;;;;11.13;98.08;101457.53;6244555;22;20014;-76
2023/04/02 10:34:01;;;;;;;0.00;0.00;;;;;;;11.07;97.04;101465.88;6247265;22;20382;-75
2023/04/02 10:36:30;;;;;;;0.00;0.00;;;;;;;11.09;95.05;101475.50;6244359;22;20004;-75
2023/04/02 10:39:12;;;;;;;0.00;0.00;;;;;;;10.96;94.04;101473.88;6247900;22;20322;-75
2023/04/02 10:41:48;;;;;;;0.00;0.00;;;;;;;11.00;93.75;101458.63;6244649;22;20085;-75
2023/04/02 10:44:43;;;;;;;0.00;0.00;;;;;;;11.32;94.25;101463.63;6247956;22;20038;-77
2023/04/02 10:47:15;;;;;;;0.00;0.00;;;;;;;12.10;92.60;101475.91;6136594;22;20021;-74
2023/04/02 10:49:59;;;;;;;0.00;0.00;;;;;;;12.51;88.92;101460.03;6246792;22;20011;-75
2023/04/02 10:52:30;;;;;;;0.00;0.00;;;;;;;12.69;86.39;101476.22;6246151;22;20030;-77
2023/04/02 10:55:20;;;;;;;0.00;0.00;;;;;;;12.60;85.03;101464.03;6270690;22;20003;-77
2023/04/02 11:05:10;;;;;;;0.00;0.00;;;;;;;13.51;86.21;101489.25;6245903;22;20315;-74
2023/04/02 11:08:06;;;;;;;;;;;;;;;;;;;;;
2023/04/02 11:10:39;;;;;;;0.00;0.00;;;;;;;13.88;81.68;101444.50;6248647;22;20096;-75
2023/04/02 11:13:35;;;;;;;0.00;0.00;;;;;;;13.90;80.91;101465.13;6269843;22;19992;-75
2023/04/02 11:16:06;;;;;;;0.03;0.03;;;;;;;13.79;82.14;101457.91;6212777;22;20011;-76
2023/04/02 11:18:41;;;;;;;0.00;0.00;;;;;;;13.86;82.68;101496.19;6270465;22;20026;-75
2023/04/02 11:21:50;;;;;;;;;;;;;;;;;;;;;
2023/04/02 11:31:19;;;;;;;;;;;;;;;12.97;82.71;101510.06;6277970;22;20015;-78
2023/04/02 11:33:44;;;;;;;0.00;0.00;;;;;;;12.82;83.66;101468.66;6275098;22;20215;-74
2023/04/02 11:36:47;;;;;;;0.00;0.00;;;;;;;13.34;83.49;101520.38;6274734;22;20033;-75
2023/04/02 11:40:43;;;;;;;;;;;;;;;;;;;;;
2023/04/02 11:43:13;;;;;;;;;;;;;;;;;;;;;
2023/04/02 11:53:33;;;;;;;;;;;;;;;;;;;;;
2023/04/02 11:57:13;;;;;;;;;;;;;;;;;;;;;
2023/04/02 12:00:46;;;;;;;;;;;;;;;;;;;;;
2023/04/02 12:14:42;;;;;;;;;;;;;;;;;;;;;
2023/04/02 12:17:20;;;;;;;0.00;0.00;;;;;;;12.81;76.97;101555.69;6026460;23;20078;-77
2023/04/02 12:27:37;;;;;;;;;;;;;;;;;;;;;
2023/04/02 12:40:45;;;;;;;;;;;;;;;;;;;;;
2023/04/02 12:43:43;;;;;;;0.00;0.00;;;;;;;12.14;78.51;101543.72;6124618;23;20020;-74
2023/04/02 12:46:29;;;;;;;0.00;0.00;;;;;;;12.40;76.21;101577.03;6187732;23;20015;-75
2023/04/02 12:49:12;;;;;;;0.00;0.00;;;;;;;12.17;75.52;101536.91;6211964;23;20054;-74
2023/04/02 12:51:53;;;;;;;0.00;0.00;;;;;;;12.43;76.30;101553.78;6237859;23;20018;-74
2023/04/02 12:54:19;;;;;;;0.00;0.00;;;;;;;12.63;76.64;101567.78;6213784;23;20000;-75
2023/04/02 12:56:46;;;;;;;0.00;0.00;;;;;;;12.91;76.65;101575.03;6212272;23;20372;-76
2023/04/02 12:59:35;;;;;;;0.00;0.00;;;;;;;13.26;77.04;101578.50;6209086;23;20008;-74
2023/04/02 13:02:17;;;;;;;0.03;0.03;;;;;;;13.43;75.74;101576.56;6213484;23;20012;-75
2023/04/02 13:04:50;;;;;;;0.00;0.00;;;;;;;13.47;74.47;101556.81;6238606;23;20556;-74
2023/04/02 13:07:21;;;;;;;0.00;0.00;;;;;;;13.66;74.53;101552.59;6214984;23;20031;-75
2023/04/02 13:10:01;;;;;;;0.00;0.00;;;;;;;13.88;72.85;101546.22;6240244;22;20008;-74
2023/04/02 13:12:35;;;;;;;0.00;0.00;;;;;;;14.43;71.27;101569.78;6271550;22;20026;-74
2023/04/02 13:15:36;;;;;;;;;;;;;;;;;;;;;
2023/04/02 13:18:06;;;;;;;0.00;0.00;;;;;;;16.10;65.15;101559.16;6246365;22;20367;-75
2023/04/02 13:20:42;;;;;;;0.00;0.00;;;;;;;18.20;61.12;101562.22;6243917;22;20069;-75
2023/04/02 13:23:36;;;;;;;;;;;;;;;;;;;;;
2023/04/02 13:26:23;;;;;;;0.00;0.00;;;;;;;19.67;60.39;101562.78;6270700;22;20086;-75
2023/04/02 13:29:02;;;;;;;0.00;0.00;;;;;;;23.77;50.10;101556.44;6246084;22;20042;-76
2023/04/02 13:31:30;;;;;;;0.00;0.00;;;;;;;26.09;45.64;101573.19;6241849;22;20008;-75
2023/04/02 13:34:06;;;;;;;0.00;0.00;;;;;;;24.84;44.16;101559.53;6273443;22;19999;-74
2023/04/02 13:36:36;;;;;;;0.00;0.00;;;;;;;23.57;44.33;101557.06;6215312;22;20007;-75
2023/04/02 13:39:10;;;;;;;0.00;0.00;;;;;;;22.72;46.08;101572.91;6273643;22;19999;-76
2023/04/02 13:41:50;;;;;;;0.00;0.00;;;;;;;21.57;47.47;101556.53;6240436;22;20016;-76
2023/04/02 13:44:40;;;;;;;0.00;0.00;;;;;;;20.82;49.38;101557.81;6246589;22;20053;-75
2023/04/02 13:47:12;;;;;;;0.00;0.00;;;;;;;20.83;48.86;101560.28;6242691;22;20003;-76
2023/04/02 13:49:38;;;;;;;0.00;0.00;;;;;;;24.05;48.45;101562.50;6245807;22;20007;-74